createdAt,value
2017-10-19T00:00:25.728Z,98111.52
2017-10-19T00:02:54.824Z,98107.06
2017-10-19T00:05:23.903Z,98112.48
2017-10-19T00:07:52.239Z,98102.97
2017-10-19T00:10:20.579Z,98109.77
2017-10-19T00:12:49.924Z,98099.17
2017-10-19T00:15:18.244Z,98105.53
2017-10-19T00:17:46.568Z,98101.48
2017-10-19T00:20:14.901Z,98107.83
2017-10-19T00:22:43.231Z,98096.09
2017-10-19T00:25:11.562Z,98095.27
2017-10-19T00:27:40.686Z,98105.47
2017-10-19T00:30:09.785Z,98098.47
2017-10-19T00:32:38.866Z,98098.17
2017-10-19T00:35:07.949Z,98098.98
2017-10-19T00:37:36.290Z,98090.55
2017-10-19T00:40:04.603Z,98092.40
2017-10-19T00:42:32.926Z,98094.55
2017-10-19T00:45:01.244Z,98092.38
2017-10-19T00:47:29.571Z,98096.03
2017-10-19T00:49:58.639Z,98098.23
2017-10-19T00:52:26.978Z,98095.78
2017-10-19T00:54:55.315Z,98097.90
2017-10-19T00:57:24.403Z,98094.21
2017-10-19T00:59:52.737Z,98093.45
2017-10-19T01:02:21.040Z,98087.39
2017-10-19T01:04:49.621Z,98091.52
2017-10-19T01:07:17.969Z,98096.52
2017-10-19T01:09:46.271Z,98098.23
2017-10-19T01:12:15.364Z,98093.83
2017-10-19T01:14:43.684Z,98093.86
2017-10-19T01:17:12.784Z,98094.34
2017-10-19T01:19:41.867Z,98087.01
2017-10-19T01:22:10.676Z,98092.55
2017-10-19T01:24:39.090Z,98095.39
2017-10-19T01:27:07.401Z,98091.19
2017-10-19T01:29:35.745Z,98089.02
2017-10-19T01:32:04.069Z,98088.91
2017-10-19T01:34:32.402Z,98093.81
2017-10-19T01:37:00.719Z,98090.77
2017-10-19T01:39:29.059Z,98088.77
2017-10-19T01:41:57.380Z,98089.55
2017-10-19T01:44:25.729Z,98090.59
2017-10-19T01:46:54.071Z,98081.06
2017-10-19T01:49:22.402Z,98081.22
2017-10-19T01:51:50.737Z,98083.53
2017-10-19T01:54:19.057Z,98081.99
2017-10-19T01:56:47.413Z,98078.16
2017-10-19T01:59:15.744Z,98079.55
2017-10-19T02:01:44.859Z,98077.16
2017-10-19T02:04:14.025Z,98075.31
2017-10-19T02:06:42.352Z,98077.97
2017-10-19T02:09:10.674Z,98071.78
2017-10-19T02:11:39.009Z,98073.17
2017-10-19T02:14:07.349Z,98070.58
2017-10-19T02:16:37.202Z,98072.48
2017-10-19T02:19:05.528Z,98068.03
2017-10-19T02:21:33.862Z,98064.50
2017-10-19T02:24:02.172Z,98067.22
2017-10-19T02:26:30.501Z,98070.41
2017-10-19T02:28:58.819Z,98064.81
2017-10-19T02:31:27.456Z,98066.63
2017-10-19T02:33:55.799Z,98065.80
2017-10-19T02:36:24.122Z,98063.21
2017-10-19T02:38:53.228Z,98062.80
2017-10-19T02:41:21.538Z,98064.27
2017-10-19T02:43:50.357Z,98063.28
2017-10-19T02:46:18.704Z,98064.52
2017-10-19T02:48:47.012Z,98072.43
2017-10-19T02:51:15.339Z,98067.20
2017-10-19T02:53:43.645Z,98069.18
2017-10-19T02:56:11.970Z,98068.93
2017-10-19T02:58:48.291Z,98074.91
2017-10-19T03:01:16.626Z,98073.92
2017-10-19T03:03:44.960Z,98075.22
2017-10-19T03:06:15.474Z,98079.41
2017-10-19T03:08:43.815Z,98076.75
2017-10-19T03:11:12.916Z,98072.18
2017-10-19T03:13:41.578Z,98069.58
2017-10-19T03:16:09.888Z,98065.59
2017-10-19T03:18:38.235Z,98071.69
2017-10-19T03:21:06.580Z,98067.78
2017-10-19T03:23:34.914Z,98069.72
2017-10-19T03:26:03.237Z,98066.28
2017-10-19T03:28:31.574Z,98060.40
2017-10-19T03:30:59.904Z,98057.73
2017-10-19T03:33:28.238Z,98057.17
2017-10-19T03:35:57.323Z,98056.49
2017-10-19T03:38:25.631Z,98056.79
2017-10-19T03:40:54.020Z,98057.14
2017-10-19T03:43:22.336Z,98057.29
2017-10-19T03:45:51.057Z,98062.49
2017-10-19T03:48:20.151Z,98059.81
2017-10-19T03:50:48.494Z,98061.53
2017-10-19T03:53:16.836Z,98062.95
2017-10-19T03:55:45.189Z,98067.41
2017-10-19T03:58:14.290Z,98064.53
2017-10-19T04:00:42.617Z,98062.88
2017-10-19T04:03:10.958Z,98064.94
2017-10-19T04:05:39.286Z,98065.42
2017-10-19T04:08:07.613Z,98061.95
2017-10-19T04:10:36.806Z,98060.10
2017-10-19T04:13:05.141Z,98060.44
2017-10-19T04:15:33.477Z,98056.27
2017-10-19T04:18:01.812Z,98057.92
2017-10-19T04:20:30.133Z,98057.02
2017-10-19T04:22:58.998Z,98051.52
2017-10-19T04:25:27.314Z,98048.92
2017-10-19T04:27:55.623Z,98046.06
2017-10-19T04:30:23.996Z,98051.75
2017-10-19T04:32:52.331Z,98045.43
2017-10-19T04:35:21.578Z,98059.42
2017-10-19T04:37:49.890Z,98056.16
2017-10-19T04:40:18.213Z,98064.22
2017-10-19T04:42:47.483Z,98055.11
2017-10-19T04:45:16.586Z,98050.65
2017-10-19T04:47:45.173Z,98052.17
2017-10-19T04:50:14.149Z,98051.48
2017-10-19T04:52:43.253Z,98053.20
2017-10-19T04:55:11.587Z,98056.55
2017-10-19T04:57:39.896Z,98060.38
2017-10-19T05:00:09.000Z,98055.34
2017-10-19T05:02:37.345Z,98046.09
2017-10-19T05:05:05.668Z,98052.56
2017-10-19T05:07:35.266Z,98053.86
2017-10-19T05:10:04.340Z,98051.48
2017-10-19T05:12:33.051Z,98043.34
2017-10-19T05:15:01.372Z,98043.75
2017-10-19T05:17:29.701Z,98046.27
2017-10-19T05:19:58.040Z,98045.31
2017-10-19T05:22:27.068Z,98047.73
2017-10-19T05:24:55.404Z,98050.17
2017-10-19T05:27:23.727Z,98049.03
2017-10-19T05:29:52.070Z,98044.92
2017-10-19T05:32:20.404Z,98050.11
2017-10-19T05:34:49.513Z,98045.73
2017-10-19T05:37:17.866Z,98047.91
2017-10-19T05:39:46.189Z,98043.95
2017-10-19T05:42:14.545Z,98044.91
2017-10-19T05:44:42.962Z,98045.98
2017-10-19T05:47:11.270Z,98043.47
2017-10-19T05:49:39.967Z,98044.09
2017-10-19T05:52:08.293Z,98047.63
2017-10-19T05:54:36.603Z,98044.06
2017-10-19T05:57:04.938Z,98040.72
2017-10-19T05:59:33.686Z,98042.69
2017-10-19T06:02:02.284Z,98044.06
2017-10-19T06:04:31.373Z,98042.76
2017-10-19T06:06:59.703Z,98042.76
2017-10-19T06:09:28.033Z,98044.88
2017-10-19T06:11:56.354Z,98041.28
2017-10-19T06:14:24.690Z,98050.22
2017-10-19T06:16:53.024Z,98048.70
2017-10-19T06:19:21.377Z,98048.92
2017-10-19T06:21:49.724Z,98044.54
2017-10-19T06:24:18.055Z,98046.21
2017-10-19T06:26:46.908Z,98046.47
2017-10-19T06:29:15.992Z,98044.77
2017-10-19T06:31:45.106Z,98044.43
2017-10-19T06:34:14.207Z,98055.39
2017-10-19T06:36:42.529Z,98058.98
2017-10-19T06:39:11.634Z,98062.86
2017-10-19T06:41:39.958Z,98059.44
2017-10-19T06:44:08.295Z,98063.17
2017-10-19T06:46:36.651Z,98067.98
2017-10-19T06:49:04.963Z,98072.02
2017-10-19T06:51:33.685Z,98075.67
2017-10-19T06:54:02.781Z,98083.17
2017-10-19T06:56:31.117Z,98089.52
2017-10-19T06:58:59.470Z,98088.27
2017-10-19T07:01:27.799Z,98089.30
2017-10-19T07:03:56.123Z,98092.30
2017-10-19T07:06:24.439Z,98096.13
2017-10-19T07:08:53.359Z,98090.59
2017-10-19T07:11:22.450Z,98096.60
2017-10-19T07:13:50.764Z,98094.77
2017-10-19T07:16:19.110Z,98105.17
2017-10-19T07:18:47.431Z,98112.00
2017-10-19T07:21:15.767Z,98106.94
2017-10-19T07:23:44.090Z,98099.01
2017-10-19T07:26:12.423Z,98103.39
2017-10-19T07:28:40.773Z,98096.34
2017-10-19T07:31:09.084Z,98101.31
2017-10-19T07:33:37.674Z,98106.72
2017-10-19T07:36:06.744Z,98103.25
2017-10-19T07:38:35.135Z,98109.11
2017-10-19T07:41:03.486Z,98108.78
2017-10-19T07:43:31.795Z,98112.77
2017-10-19T07:46:00.151Z,98114.44
2017-10-19T07:48:28.473Z,98113.62
2017-10-19T07:50:56.804Z,98110.26
2017-10-19T07:53:25.149Z,98114.58
2017-10-19T07:55:53.488Z,98113.59
2017-10-19T07:58:21.845Z,98117.72
2017-10-19T08:00:50.167Z,98116.23
2017-10-19T08:03:19.243Z,98112.34
2017-10-19T08:05:47.574Z,98106.81
2017-10-19T08:08:15.888Z,98107.19
2017-10-19T08:10:44.240Z,98106.25
2017-10-19T08:13:12.600Z,98112.41
2017-10-19T08:15:41.080Z,98111.45
2017-10-19T08:18:09.424Z,98105.07
2017-10-19T08:20:37.745Z,98106.48
2017-10-19T08:23:06.597Z,98104.02
2017-10-19T08:25:34.917Z,98101.78
2017-10-19T08:28:03.238Z,98099.14
2017-10-19T08:30:31.603Z,98096.82
2017-10-19T08:32:59.919Z,98097.45
2017-10-19T08:35:28.250Z,98094.57
2017-10-19T08:37:56.560Z,98095.69
2017-10-19T08:40:24.897Z,98097.17
2017-10-19T08:42:53.645Z,98096.20
2017-10-19T08:45:21.947Z,98097.92
2017-10-19T08:47:50.269Z,98100.02
2017-10-19T08:50:18.622Z,98093.08
2017-10-19T08:52:47.373Z,98094.95
2017-10-19T08:55:16.472Z,98089.97
2017-10-19T08:57:44.784Z,98089.21
2017-10-19T09:00:13.134Z,98092.42
2017-10-19T09:02:42.249Z,98095.40
2017-10-19T09:05:10.582Z,98097.19
2017-10-19T09:07:38.919Z,98104.96
2017-10-19T09:10:07.239Z,98102.16
2017-10-19T09:12:35.842Z,98098.07
2017-10-19T09:15:04.922Z,98095.72
2017-10-19T09:17:33.239Z,98097.84
2017-10-19T09:20:01.579Z,98096.91
2017-10-19T09:22:29.901Z,98097.48
2017-10-19T09:24:58.300Z,98094.16
2017-10-19T09:27:26.636Z,98097.57
2017-10-19T09:29:54.980Z,98100.87
2017-10-19T09:32:23.320Z,98094.70
2017-10-19T09:34:51.682Z,98096.48
2017-10-19T09:37:20.783Z,98085.09
2017-10-19T09:39:49.099Z,98087.84
2017-10-19T09:42:17.443Z,98088.21
2017-10-19T09:44:46.544Z,98085.75
2017-10-19T09:47:15.204Z,98083.98
2017-10-19T09:49:43.523Z,98087.45
2017-10-19T09:52:11.846Z,98083.64
2017-10-19T09:54:40.569Z,98083.97
2017-10-19T09:57:09.661Z,98087.43
2017-10-19T09:59:38.028Z,98076.86
2017-10-19T10:02:06.341Z,98075.76
2017-10-19T10:04:34.706Z,98070.14
2017-10-19T10:07:03.861Z,98068.33
2017-10-19T10:09:32.184Z,98065.89
2017-10-19T10:12:00.571Z,98057.44
2017-10-19T10:14:28.897Z,98056.01
2017-10-19T10:16:57.237Z,98058.74
2017-10-19T10:19:25.566Z,98057.59
2017-10-19T10:21:53.907Z,98054.44
2017-10-19T10:24:22.260Z,98049.78
2017-10-19T10:26:50.588Z,98056.72
2017-10-19T10:29:18.927Z,98048.08
2017-10-19T10:31:47.268Z,98044.23
2017-10-19T10:34:15.640Z,98041.14
2017-10-19T10:36:43.956Z,98037.14
2017-10-19T10:39:13.066Z,98036.81
2017-10-19T10:41:41.421Z,98032.14
2017-10-19T10:44:09.735Z,98028.44
2017-10-19T10:46:38.079Z,98025.64
2017-10-19T10:49:07.208Z,98027.63
2017-10-19T10:51:35.538Z,98021.92
2017-10-19T10:54:03.944Z,98013.74
2017-10-19T10:56:32.528Z,98017.05
2017-10-19T10:59:01.617Z,98000.47
2017-10-19T14:13:34.914Z,97852.65
2017-10-19T14:16:12.225Z,97852.75
2017-10-19T14:18:44.939Z,97852.86
2017-10-19T14:21:17.624Z,97849.41
2017-10-19T14:23:46.653Z,97854.41
2017-10-19T14:26:15.142Z,97854.31
2017-10-19T14:28:43.568Z,97858.28
2017-10-19T14:31:12.186Z,97851.94
2017-10-19T14:33:41.813Z,97854.88
2017-10-19T14:36:10.183Z,97852.08
2017-10-19T14:38:39.226Z,97853.07
2017-10-19T14:41:07.914Z,97849.68
2017-10-19T14:43:36.371Z,97853.70
2017-10-19T14:46:05.598Z,97848.15
2017-10-19T14:48:35.133Z,97847.44
2017-10-19T14:51:05.104Z,97846.56
2017-10-19T14:53:33.551Z,97844.84
2017-10-19T14:56:01.907Z,97842.69
2017-10-19T14:58:30.255Z,97837.03
2017-10-19T15:00:58.594Z,97831.95
2017-10-19T15:03:26.937Z,97830.52
2017-10-19T15:05:56.063Z,97823.77
2017-10-19T15:08:24.400Z,97825.48
2017-10-19T15:10:52.743Z,97828.25
2017-10-19T15:13:21.098Z,97831.32
2017-10-19T15:15:49.420Z,97824.04
2017-10-19T15:18:17.765Z,97824.45
2017-10-19T15:20:47.110Z,97828.70
2017-10-19T15:23:16.107Z,97834.14
2017-10-19T15:25:45.173Z,97826.02
2017-10-19T15:28:13.496Z,97828.50
2017-10-19T15:30:42.615Z,97830.45
2017-10-19T15:33:11.017Z,97831.84
2017-10-19T15:35:39.360Z,97827.44
2017-10-19T15:38:08.501Z,97829.23
2017-10-19T15:40:36.907Z,97831.83
2017-10-19T15:43:05.238Z,97838.69
2017-10-19T15:45:33.560Z,97834.95
2017-10-19T15:48:01.925Z,97835.78
2017-10-19T15:50:30.269Z,97840.92
2017-10-19T15:52:59.415Z,97835.48
2017-10-19T15:55:27.739Z,97845.16
2017-10-19T15:57:56.094Z,97840.84
2017-10-19T16:00:25.177Z,97847.84
2017-10-19T16:02:53.550Z,97846.97
2017-10-19T16:05:21.879Z,97846.18
2017-10-19T16:07:50.207Z,97848.42
2017-10-19T16:10:18.562Z,97850.16
2017-10-19T16:12:46.880Z,97852.11
2017-10-19T16:15:15.234Z,97851.63
2017-10-19T16:17:43.558Z,97853.69
2017-10-19T16:20:12.668Z,97854.34
2017-10-19T16:22:41.030Z,97853.81
2017-10-19T16:25:10.137Z,97853.80
2017-10-19T16:27:39.346Z,97853.91
2017-10-19T16:30:07.677Z,97851.66
2017-10-19T16:32:38.647Z,97849.71
2017-10-19T16:35:07.745Z,97855.57
2017-10-19T16:37:36.849Z,97855.06
2017-10-19T16:40:05.978Z,97860.47
2017-10-19T16:42:34.302Z,97859.16
2017-10-19T16:45:02.643Z,97868.16
2017-10-19T16:47:31.774Z,97860.54
2017-10-19T16:50:00.139Z,97870.80
2017-10-19T16:52:28.502Z,97864.98
2017-10-19T16:54:56.819Z,97862.05
2017-10-19T16:57:25.418Z,97866.00
2017-10-19T16:59:54.563Z,97866.58
2017-10-19T17:02:22.903Z,97870.42
2017-10-19T17:04:52.033Z,97877.66
2017-10-19T17:07:20.386Z,97883.55
2017-10-19T17:09:48.731Z,97889.42
2017-10-19T17:12:17.090Z,97892.55
2017-10-19T17:14:45.506Z,97893.36
2017-10-19T17:17:14.612Z,97892.80
2017-10-19T17:19:43.742Z,97902.02
2017-10-19T17:22:12.084Z,97904.42
2017-10-19T17:24:41.215Z,97902.61
2017-10-19T17:27:09.570Z,97894.11
2017-10-19T17:29:38.669Z,97910.26
2017-10-19T17:32:07.027Z,97906.31
2017-10-19T17:34:35.357Z,97913.95
2017-10-19T17:37:03.724Z,97912.98
2017-10-19T17:39:32.054Z,97916.11
2017-10-19T17:42:00.435Z,97914.08
2017-10-19T17:44:29.081Z,97917.15
2017-10-19T17:46:57.420Z,97928.39
2017-10-19T17:49:26.547Z,97918.09
2017-10-19T17:51:54.967Z,97916.08
2017-10-19T17:54:24.154Z,97916.79
2017-10-19T17:56:52.562Z,97926.56
2017-10-19T17:59:20.905Z,97927.11
2017-10-19T18:01:49.422Z,97922.23
2017-10-19T18:04:17.775Z,97918.91
2017-10-19T18:06:46.123Z,97929.98
2017-10-19T18:09:14.480Z,97924.58
2017-10-19T18:11:43.581Z,97931.05
2017-10-19T18:14:12.958Z,97927.94
2017-10-19T18:16:41.297Z,97927.40
2017-10-19T18:19:10.396Z,97928.94
2017-10-19T18:21:38.764Z,97924.83
2017-10-19T18:24:07.121Z,97938.75
2017-10-19T18:26:36.505Z,97920.92
2017-10-19T18:29:04.855Z,97928.09
2017-10-19T18:31:33.224Z,97924.07
2017-10-19T18:34:01.597Z,97915.30
2017-10-19T18:36:29.986Z,97918.87
2017-10-19T18:38:58.345Z,97922.82
2017-10-19T18:41:26.757Z,97918.44
2017-10-19T18:43:55.954Z,97921.79
2017-10-19T18:46:24.333Z,97925.03
2017-10-19T18:48:52.702Z,97926.76
2017-10-19T18:51:21.127Z,97924.20
2017-10-19T18:53:50.247Z,97927.55
2017-10-19T18:56:19.396Z,97921.31
2017-10-19T18:58:47.722Z,97927.58
2017-10-19T19:01:16.872Z,97924.27
2017-10-19T19:03:45.237Z,97931.22
2017-10-19T19:06:13.594Z,97927.29
2017-10-19T19:08:41.973Z,97935.37
2017-10-19T19:11:10.325Z,97936.31
2017-10-19T19:13:39.695Z,97931.45
2017-10-19T19:16:08.027Z,97938.82
2017-10-19T19:18:36.359Z,97934.09
2017-10-19T19:21:04.722Z,97931.84
2017-10-19T19:23:33.054Z,97938.02
2017-10-19T19:26:02.177Z,97938.83
2017-10-19T19:28:30.524Z,97938.73
2017-10-19T19:30:59.666Z,97934.39
2017-10-19T19:33:28.004Z,97940.95
2017-10-19T19:35:57.138Z,97943.36
2017-10-19T19:38:25.484Z,97939.42
2017-10-19T19:40:54.610Z,97943.27
2017-10-19T19:43:22.935Z,97942.36
2017-10-19T19:45:51.286Z,97943.17
2017-10-19T19:48:19.657Z,97940.42
2017-10-19T19:50:48.004Z,97942.55
2017-10-19T19:53:17.145Z,97935.41
2017-10-19T19:55:45.584Z,97936.40
2017-10-19T19:58:15.825Z,97936.90
2017-10-19T20:00:47.674Z,97937.71
2017-10-19T20:03:16.021Z,97934.49
2017-10-19T20:05:45.570Z,97941.41
2017-10-19T20:08:18.448Z,97938.79
2017-10-19T20:10:46.953Z,97945.23
2017-10-19T20:13:17.435Z,97951.30
2017-10-19T20:15:47.134Z,97954.92
2017-10-19T20:18:15.469Z,97950.39
2017-10-19T20:20:43.853Z,97952.09
2017-10-19T20:23:14.370Z,97956.38
2017-10-19T20:25:44.884Z,97961.53
2017-10-19T20:28:14.198Z,97954.39
2017-10-19T20:30:43.196Z,97963.06
2017-10-19T20:33:11.598Z,97955.26
2017-10-19T20:35:39.940Z,97963.39
2017-10-19T20:38:08.329Z,97962.70
2017-10-19T20:40:38.843Z,97957.45
2017-10-19T20:43:08.160Z,97962.02
2017-10-19T20:45:36.552Z,97958.19
2017-10-19T20:48:04.917Z,97953.43
2017-10-19T20:50:34.895Z,97958.30
2017-10-19T20:53:03.246Z,97957.18
2017-10-19T20:55:33.814Z,97958.58
2017-10-19T20:58:03.349Z,97954.78
2017-10-19T21:00:32.675Z,97949.47
2017-10-19T21:03:05.054Z,97951.50
2017-10-19T21:05:34.345Z,97946.21
2017-10-19T21:08:04.880Z,97947.20
2017-10-19T21:10:33.280Z,97937.47
2017-10-19T21:13:03.794Z,97938.98
2017-10-19T21:15:34.309Z,97941.61
2017-10-19T21:18:04.847Z,97946.75
2017-10-19T21:20:33.234Z,97939.06
2017-10-19T21:23:03.731Z,97937.32
2017-10-19T21:25:33.022Z,97943.80
2017-10-19T21:28:02.613Z,97942.63
2017-10-19T21:30:31.949Z,97940.34
2017-10-19T21:33:01.291Z,97946.09
2017-10-19T21:35:29.626Z,97941.19
2017-10-19T21:37:58.933Z,97933.69
2017-10-19T21:40:27.344Z,97932.90
2017-10-19T21:42:55.689Z,97933.27
2017-10-19T21:45:25.129Z,97926.05
2017-10-19T21:47:53.675Z,97934.39
2017-10-19T21:50:23.006Z,97931.31
2017-10-19T21:52:51.353Z,97923.41
2017-10-19T21:55:20.669Z,97933.42
2017-10-19T21:57:49.982Z,97933.24
2017-10-19T22:00:18.377Z,97931.28
2017-10-19T22:02:46.741Z,97930.47
2017-10-19T22:05:15.101Z,97935.36
2017-10-19T22:07:44.421Z,97934.25
2017-10-19T22:10:12.776Z,97935.38
2017-10-19T22:12:41.875Z,97929.63
2017-10-19T22:15:11.079Z,97926.88
2017-10-19T22:17:40.386Z,97932.49
2017-10-19T22:20:09.694Z,97933.17
2017-10-19T22:22:38.048Z,97936.88
2017-10-19T22:25:07.184Z,97939.80
2017-10-19T22:27:36.653Z,97934.85
2017-10-19T22:30:09.048Z,97935.22
2017-10-19T22:32:38.386Z,97943.47
2017-10-19T22:35:06.740Z,97945.09
2017-10-19T22:37:35.114Z,97947.67
2017-10-19T22:40:03.545Z,97950.73
2017-10-19T22:42:33.070Z,97944.45
2017-10-19T22:45:01.458Z,97942.72
2017-10-19T22:47:31.992Z,97940.30
2017-10-19T22:50:01.287Z,97943.44
2017-10-19T22:52:29.693Z,97943.78
2017-10-19T22:54:58.041Z,97940.39
2017-10-19T22:57:26.468Z,97939.81
2017-10-19T22:59:56.962Z,97936.99
2017-10-19T23:02:26.272Z,97938.51
2017-10-19T23:04:55.591Z,97944.55
2017-10-19T23:07:23.948Z,97950.67
2017-10-19T23:09:53.258Z,97947.78
2017-10-19T23:12:22.595Z,97951.42
2017-10-19T23:14:50.941Z,97945.91
2017-10-19T23:17:20.210Z,97948.43
2017-10-19T23:19:48.940Z,97952.08
2017-10-19T23:22:19.436Z,97953.57
2017-10-19T23:24:47.829Z,97959.05
2017-10-19T23:27:17.156Z,97962.41
2017-10-19T23:29:45.503Z,97958.31
2017-10-19T23:32:13.911Z,97961.73
2017-10-19T23:34:42.277Z,97968.38
2017-10-19T23:37:11.605Z,97966.45
2017-10-19T23:39:39.956Z,97968.55
2017-10-19T23:42:10.233Z,97965.70
2017-10-19T23:44:43.478Z,97963.53
2017-10-19T23:47:12.793Z,97961.22
2017-10-19T23:49:43.314Z,97965.58
2017-10-19T23:52:12.871Z,97963.52
2017-10-19T23:54:41.281Z,97967.88
2017-10-19T23:57:10.587Z,97966.41
2017-10-19T23:59:38.989Z,97967.25
